Time;durP1;ratioP1;P1;durP2;ratioP2;P2;SDS_P1;SDS_P2;PMS_P1;PMS_P2;Temp;Humidity;BMP_temperature;BMP_pressure;BME280_temperature;BME280_humidity;BME280_pressure;Samples;Min_cycle;Max_cycle;Signal;HPM_P1;HPM_P2
2022/05/11 00:01:45;;;;;;;6.57;5.85;;;18.70;99.90;;;;;;5095396;28;20039;-66
2022/05/11 00:04:11;;;;;;;8.98;6.90;;;18.60;99.90;;;;;;5077587;28;20020;-66
2022/05/11 00:06:38;;;;;;;9.73;6.70;;;18.60;99.90;;;;;;5095725;28;20031;-66
2022/05/11 00:09:04;;;;;;;7.90;6.85;;;18.60;99.90;;;;;;5095137;28;20038;-66
2022/05/11 00:11:30;;;;;;;12.90;7.30;;;18.60;99.90;;;;;;5077012;28;20044;-66
2022/05/11 00:13:57;;;;;;;10.80;7.00;;;18.60;99.90;;;;;;5095176;28;20499;-66
2022/05/11 00:16:27;;;;;;;10.35;7.07;;;18.50;99.90;;;;;;5097118;28;20123;-66
2022/05/11 00:18:53;;;;;;;8.63;7.72;;;18.50;99.90;;;;;;5079255;28;20388;-65
2022/05/11 00:21:19;;;;;;;8.55;6.72;;;18.50;99.90;;;;;;5099420;28;20052;-66
2022/05/11 00:23:45;;;;;;;9.23;7.75;;;18.40;99.90;;;;;;5101916;28;20031;-66
2022/05/11 00:26:11;;;;;;;10.10;7.18;;;18.40;99.90;;;;;;5097171;28;20020;-66
2022/05/11 00:28:37;;;;;;;8.63;6.32;;;18.40;99.90;;;;;;5096028;28;20158;-65
2022/05/11 00:31:03;;;;;;;8.98;6.90;;;18.40;99.90;;;;;;5094571;28;20054;-66
2022/05/11 00:33:29;;;;;;;10.65;7.07;;;18.40;99.90;;;;;;5094729;28;20027;-66
2022/05/11 00:35:54;;;;;;;8.82;6.78;;;18.30;99.90;;;;;;5076059;28;20421;-66
2022/05/11 00:38:26;;;;;;;7.50;6.50;;;18.30;99.90;;;;;;5094709;28;20415;-66
2022/05/11 00:40:55;;;;;;;9.88;7.38;;;18.30;99.90;;;;;;5094588;28;20051;-65
2022/05/11 00:43:35;;;;;;;9.30;6.97;;;18.20;99.90;;;;;;5076080;28;20048;-66
2022/05/11 00:46:42;;;;;;;9.05;7.10;;;18.20;99.90;;;;;;5076498;28;20409;-65
2022/05/11 00:49:38;;;;;;;8.57;6.65;;;18.10;99.90;;;;;;5070891;28;20538;-66
2022/05/11 00:52:15;;;;;;;7.50;6.70;;;18.10;99.90;;;;;;5094302;28;20476;-66
2022/05/11 00:54:46;;;;;;;8.20;7.40;;;18.10;99.90;;;;;;5094927;28;20028;-65
2022/05/11 00:57:20;;;;;;;9.13;7.13;;;18.10;99.90;;;;;;5095490;28;20021;-66
2022/05/11 00:59:48;;;;;;;10.23;8.07;;;18.00;99.90;;;;;;5076928;28;20020;-66
2022/05/11 01:02:13;;;;;;;10.48;7.45;;;18.00;99.90;;;;;;5094128;28;20020;-65
2022/05/11 01:04:42;;;;;;;8.93;7.15;;;18.00;99.90;;;;;;5075715;28;20027;-66
2022/05/11 01:07:10;;;;;;;9.43;7.00;;;18.00;99.90;;;;;;5075681;28;20035;-66
2022/05/11 01:09:36;;;;;;;7.95;7.15;;;18.00;99.90;;;;;;5075959;28;20109;-66
2022/05/11 01:12:05;;;;;;;10.45;7.60;;;17.90;99.90;;;;;;5075934;28;20386;-66
2022/05/11 01:14:38;;;;;;;8.07;7.28;;;17.90;99.90;;;;;;5094440;28;20032;-66
2022/05/11 01:17:04;;;;;;;8.40;7.03;;;17.90;99.90;;;;;;5093669;28;20013;-66
2022/05/11 01:19:38;;;;;;;9.23;7.63;;;17.80;99.90;;;;;;5093911;28;20099;-66
2022/05/11 01:22:13;;;;;;;8.63;7.40;;;17.80;99.90;;;;;;5093964;28;20016;-66
2022/05/11 01:24:42;;;;;;;11.70;8.13;;;17.80;99.90;;;;;;5093943;28;20016;-66
2022/05/11 01:27:28;;;;;;;8.57;7.38;;;17.80;99.90;;;;;;5093467;28;20030;-66
2022/05/11 01:29:56;;;;;;;7.53;6.82;;;17.80;99.90;;;;;;5093931;28;20495;-65
2022/05/11 01:32:24;;;;;;;8.13;7.28;;;17.70;99.90;;;;;;5093597;28;20438;-65
2022/05/11 01:35:18;;;;;;;9.55;6.72;;;17.70;99.90;;;;;;5093520;28;20441;-67
2022/05/11 01:37:59;;;;;;;8.48;6.75;;;17.70;99.90;;;;;;5090529;28;20052;-65
2022/05/11 01:40:25;;;;;;;10.00;7.07;;;17.70;99.90;;;;;;5093115;28;20077;-66
2022/05/11 01:42:51;;;;;;;6.60;5.95;;;17.70;99.90;;;;;;5093561;28;20052;-66
2022/05/11 01:45:16;;;;;;;8.05;6.38;;;17.70;99.90;;;;;;5093532;28;20046;-66
2022/05/11 01:47:42;;;;;;;8.75;6.35;;;17.70;99.90;;;;;;5093729;28;20476;-65
2022/05/11 01:50:08;;;;;;;10.50;6.90;;;17.70;99.90;;;;;;5093183;28;20508;-66
2022/05/11 01:52:34;;;;;;;;;;;17.60;99.90;;;;;;5093801;28;20028;-66
2022/05/11 01:54:59;;;;;;;7.68;6.10;;;17.60;99.90;;;;;;5093107;28;20462;-65
2022/05/11 01:57:25;;;;;;;7.00;6.30;;;17.60;99.90;;;;;;5093456;28;20024;-66
2022/05/11 01:59:50;;;;;;;6.50;5.82;;;17.60;99.90;;;;;;5093322;28;20032;-65
2022/05/11 02:02:16;;;;;;;7.07;6.10;;;17.90;99.90;;;;;;5092957;28;20392;-65
2022/05/11 02:10:10;;;;;;;7.35;6.47;;;17.70;99.90;;;;;;5092907;28;20085;-65
2022/05/11 02:12:36;;;;;;;8.20;6.28;;;17.70;99.90;;;;;;5092985;28;20396;-65
2022/05/11 02:15:04;;;;;;;9.32;5.75;;;17.70;99.90;;;;;;5092854;28;20024;-65
2022/05/11 02:17:29;;;;;;;8.05;6.40;;;17.80;99.90;;;;;;5092554;28;20018;-65
2022/05/11 02:19:55;;;;;;;11.07;7.33;;;17.80;99.90;;;;;;5092634;28;20099;-66
2022/05/11 02:22:21;;;;;;;9.30;6.60;;;17.70;99.90;;;;;;5092775;28;20265;-66
2022/05/11 02:24:47;;;;;;;7.45;6.65;;;17.60;99.90;;;;;;5092780;28;20480;-66
2022/05/11 02:27:12;;;;;;;;;;;17.50;99.90;;;;;;5093198;28;20020;-66
2022/05/11 02:29:38;;;;;;;7.63;6.20;;;17.60;99.90;;;;;;5093004;28;19904;-67
2022/05/11 02:32:04;;;;;;;7.50;6.68;;;17.50;99.90;;;;;;5092765;28;20032;-65
2022/05/11 02:37:31;;;;;;;7.93;6.22;;;17.60;99.90;;;;;;5010718;28;20034;-65
2022/05/11 02:39:56;;;;;;;8.07;6.25;;;17.50;99.90;;;;;;5010887;28;20483;-66
2022/05/11 02:42:22;;;;;;;7.70;6.22;;;17.40;99.90;;;;;;5010720;28;20109;-64
2022/05/11 02:44:48;;;;;;;7.63;5.70;;;17.30;99.90;;;;;;5011081;28;20034;-65
2022/05/11 02:47:14;;;;;;;7.93;6.30;;;17.20;99.90;;;;;;5010418;28;20037;-65
2022/05/11 02:49:40;;;;;;;8.25;6.40;;;17.20;99.90;;;;;;5011254;28;20541;-66
2022/05/11 02:52:05;;;;;;;7.32;5.88;;;17.10;99.90;;;;;;5014978;28;20034;-66
2022/05/11 02:54:31;;;;;;;6.57;5.65;;;17.10;99.90;;;;;;5015263;28;20088;-66
2022/05/11 02:56:57;;;;;;;8.70;6.03;;;17.00;99.90;;;;;;5015196;28;20589;-66
2022/05/11 02:59:22;;;;;;;7.07;5.07;;;17.00;99.90;;;;;;5015007;28;20030;-66
2022/05/11 03:01:49;;;;;;;6.95;5.72;;;17.00;99.90;;;;;;5015960;28;20033;-66
2022/05/11 03:04:15;;;;;;;8.48;5.80;;;17.00;99.90;;;;;;5014773;28;20030;-66
2022/05/11 03:06:42;;;;;;;6.65;5.95;;;17.00;99.90;;;;;;5015512;28;20077;-66
2022/05/11 03:09:08;;;;;;;7.63;5.63;;;16.90;99.90;;;;;;5018500;28;20033;-65
2022/05/11 03:11:34;;;;;;;12.63;6.70;;;16.90;99.90;;;;;;5041129;28;20362;-65
2022/05/11 03:13:59;;;;;;;9.00;6.47;;;16.90;99.90;;;;;;5096047;28;20097;-65
2022/05/11 03:16:25;;;;;;;6.25;5.65;;;16.90;99.90;;;;;;5096303;28;20063;-65
2022/05/11 03:18:51;;;;;;;7.28;5.97;;;16.90;99.90;;;;;;5096302;28;20103;-66
2022/05/11 03:21:16;;;;;;;6.22;5.63;;;16.90;99.90;;;;;;5096119;28;20111;-66
2022/05/11 03:23:42;;;;;;;7.28;6.38;;;16.90;99.90;;;;;;5096137;28;20020;-65
2022/05/11 03:26:08;;;;;;;9.15;5.85;;;16.80;99.90;;;;;;5096261;28;20024;-66
2022/05/11 03:28:33;;;;;;;9.80;5.50;;;16.90;99.90;;;;;;5095594;28;20427;-66
2022/05/11 03:30:59;;;;;;;6.63;5.80;;;16.80;99.90;;;;;;5077690;28;20036;-65
2022/05/11 03:36:09;;;;;;;8.85;5.78;;;16.80;99.90;;;;;;5095607;28;20038;-65
2022/05/11 03:38:35;;;;;;;11.20;5.85;;;16.80;99.90;;;;;;5095450;28;20028;-65
2022/05/11 03:41:00;;;;;;;7.10;6.13;;;16.80;99.90;;;;;;5077596;28;20036;-65
2022/05/11 03:43:26;;;;;;;7.68;5.97;;;16.70;99.90;;;;;;5095870;28;20055;-65
2022/05/11 03:45:52;;;;;;;7.38;6.28;;;16.70;99.90;;;;;;5095890;28;20107;-66
2022/05/11 03:48:17;;;;;;;7.70;5.97;;;16.70;99.90;;;;;;5096400;28;20071;-66
2022/05/11 03:50:43;;;;;;;7.43;6.60;;;16.70;99.90;;;;;;5096292;28;20062;-65
2022/05/11 03:53:09;;;;;;;6.50;5.80;;;16.70;99.90;;;;;;5096211;28;20103;-65
2022/05/11 03:55:34;;;;;;;7.15;6.32;;;16.70;99.90;;;;;;5095539;28;20477;-64
2022/05/11 03:58:01;;;;;;;7.97;6.23;;;16.70;99.90;;;;;;5095458;28;20021;-65
2022/05/11 04:00:26;;;;;;;8.73;6.00;;;16.70;99.90;;;;;;5095121;28;20031;-65
2022/05/11 04:02:53;;;;;;;8.40;5.70;;;16.70;99.90;;;;;;5094149;28;20020;-66
2022/05/11 04:05:20;;;;;;;8.60;6.18;;;16.80;99.90;;;;;;5096663;28;20035;-65
2022/05/11 04:07:46;;;;;;;9.10;6.25;;;16.80;99.90;;;;;;5096248;28;20028;-65
2022/05/11 04:10:13;;;;;;;7.90;5.97;;;16.70;99.90;;;;;;5094979;28;20551;-66
2022/05/11 04:12:39;;;;;;;8.30;6.00;;;16.70;99.90;;;;;;5094881;28;20333;-65
2022/05/11 04:15:05;;;;;;;7.03;6.25;;;16.70;99.90;;;;;;5095189;28;20052;-67
2022/05/11 04:17:31;;;;;;;;;;;16.70;99.90;;;;;;5095357;28;20194;-66
2022/05/11 04:19:56;;;;;;;7.25;6.10;;;16.80;99.90;;;;;;5094631;28;20318;-65
2022/05/11 04:22:22;;;;;;;8.85;6.05;;;16.90;99.90;;;;;;5094732;28;20028;-66
2022/05/11 04:24:48;;;;;;;7.10;6.32;;;16.90;99.90;;;;;;5094742;28;20039;-65
2022/05/11 04:27:13;;;;;;;7.15;6.20;;;16.80;99.90;;;;;;5094566;28;20028;-66
2022/05/11 04:29:40;;;;;;;8.23;6.18;;;16.70;99.90;;;;;;5094655;28;20028;-65
2022/05/11 04:32:07;;;;;;;11.70;6.28;;;16.70;99.90;;;;;;5094455;28;20063;-65
2022/05/11 04:34:34;;;;;;;6.70;5.93;;;16.80;99.90;;;;;;5094502;28;20361;-65
2022/05/11 04:36:59;;;;;;;7.80;6.78;;;16.70;99.90;;;;;;5094440;28;20036;-64
2022/05/11 04:39:25;;;;;;;7.50;6.32;;;16.70;99.90;;;;;;5095059;28;20020;-66
2022/05/11 04:41:51;;;;;;;7.50;6.65;;;16.70;99.90;;;;;;5096144;28;20143;-65
2022/05/11 04:44:17;;;;;;;8.70;6.55;;;16.70;99.90;;;;;;5077138;28;20031;-66
2022/05/11 04:46:42;;;;;;;8.05;6.80;;;16.70;99.90;;;;;;5095046;28;20103;-66
2022/05/11 04:49:19;;;;;;;7.87;6.10;;;16.60;99.90;;;;;;5095475;28;20465;-66
2022/05/11 04:51:46;;;;;;;7.57;6.72;;;16.90;99.90;;;;;;5095071;28;20250;-65
2022/05/11 04:54:11;;;;;;;8.50;6.25;;;16.90;99.90;;;;;;5094940;28;20085;-64
2022/05/11 04:56:40;;;;;;;7.50;6.13;;;16.90;99.90;;;;;;5094414;28;20115;-63
2022/05/11 04:59:08;;;;;;;7.97;6.03;;;16.90;99.90;;;;;;5094027;28;20031;-64
2022/05/11 05:01:34;;;;;;;7.95;6.22;;;16.90;99.90;;;;;;5094196;28;20017;-66
2022/05/11 05:04:00;;;;;;;7.38;5.80;;;16.80;99.90;;;;;;5094197;28;20470;-66
2022/05/11 05:06:27;;;;;;;7.68;6.78;;;16.70;99.90;;;;;;5093877;28;20019;-64
2022/05/11 05:08:55;;;;;;;8.43;6.50;;;16.80;99.90;;;;;;5093835;28;20032;-68
2022/05/11 05:11:20;;;;;;;8.32;6.30;;;16.80;99.90;;;;;;5093960;28;20024;-64
2022/05/11 05:13:46;;;;;;;8.85;6.55;;;16.80;99.90;;;;;;5094014;28;20039;-63
2022/05/11 05:16:12;;;;;;;7.90;6.07;;;16.90;99.90;;;;;;5094138;28;20089;-65
2022/05/11 05:18:37;;;;;;;8.50;6.33;;;16.90;99.90;;;;;;5093316;28;20723;-63
2022/05/11 05:21:03;;;;;;;8.80;6.13;;;16.90;99.90;;;;;;5075227;28;20503;-63
2022/05/11 05:23:28;;;;;;;7.80;6.65;;;17.00;99.90;;;;;;5093662;28;20094;-64
2022/05/11 05:25:54;;;;;;;10.80;7.13;;;17.00;99.90;;;;;;5093443;28;20060;-63
2022/05/11 05:31:21;;;;;;;9.60;6.40;;;17.10;99.90;;;;;;5048724;28;20028;-64
2022/05/11 05:33:47;;;;;;;8.07;6.40;;;17.30;99.90;;;;;;5075588;28;20064;-64
2022/05/11 05:36:13;;;;;;;10.05;6.70;;;17.20;99.90;;;;;;5093511;28;20042;-62
2022/05/11 05:38:39;;;;;;;9.48;6.50;;;17.30;99.90;;;;;;5092995;28;20141;-63
2022/05/11 05:41:10;;;;;;;10.15;6.70;;;17.30;99.90;;;;;;5093474;28;20514;-64
2022/05/11 05:43:37;;;;;;;7.47;6.28;;;17.30;99.90;;;;;;5093703;28;20028;-64
2022/05/11 05:46:03;;;;;;;9.32;6.30;;;17.40;99.90;;;;;;5093419;28;20020;-64
2022/05/11 05:48:28;;;;;;;7.63;6.63;;;17.50;99.90;;;;;;5093337;28;20107;-65
2022/05/11 05:51:08;;;;;;;8.60;6.38;;;17.50;99.90;;;;;;5093114;28;20032;-64
2022/05/11 05:53:34;;;;;;;7.55;5.47;;;17.50;99.90;;;;;;5092683;28;20027;-65
2022/05/11 05:56:00;;;;;;;6.13;5.45;;;17.50;99.90;;;;;;5092248;28;20024;-64
2022/05/11 05:58:26;;;;;;;9.18;6.13;;;17.60;99.90;;;;;;5093199;28;20020;-64
2022/05/11 06:00:53;;;;;;;7.85;5.43;;;17.70;99.90;;;;;;5092392;28;20024;-64
2022/05/11 06:03:21;;;;;;;8.43;5.53;;;17.90;99.90;;;;;;5092239;28;20024;-64
2022/05/11 06:05:46;;;;;;;12.38;5.68;;;18.00;99.90;;;;;;5092175;28;20114;-64
2022/05/11 06:08:15;;;;;;;9.98;6.30;;;17.90;99.90;;;;;;5092897;28;20112;-67
2022/05/11 06:10:41;;;;;;;7.20;5.88;;;17.90;99.90;;;;;;5092748;28;20393;-64
2022/05/11 06:13:07;;;;;;;10.10;6.03;;;17.90;99.90;;;;;;5092680;28;20035;-63
2022/05/11 06:15:33;;;;;;;;;;;18.00;99.90;;;;;;5093275;28;20090;-63
2022/05/11 06:17:59;;;;;;;10.30;5.65;;;18.10;99.90;;;;;;5092762;28;19934;-64
2022/05/11 06:20:25;;;;;;;;;;;18.20;99.90;;;;;;5093098;28;20099;-63
2022/05/11 06:22:53;;;;;;;6.45;4.57;;;18.30;99.90;;;;;;5092673;28;19961;-64
2022/05/11 06:25:20;;;;;;;7.53;5.30;;;18.40;99.90;;;;;;5093779;28;20024;-64
2022/05/11 06:27:46;;;;;;;8.65;5.32;;;18.40;99.90;;;;;;5096605;28;20438;-64
2022/05/11 06:30:12;;;;;;;8.77;5.40;;;18.50;99.90;;;;;;5078244;28;20106;-63
2022/05/11 06:32:38;;;;;;;10.45;5.88;;;18.60;99.90;;;;;;5097105;28;20502;-63
2022/05/11 06:35:04;;;;;;;8.13;5.40;;;18.80;99.90;;;;;;5096826;28;20032;-64
2022/05/11 06:37:30;;;;;;;10.30;6.53;;;18.90;99.90;;;;;;5096266;28;20036;-64
2022/05/11 06:39:56;;;;;;;12.55;5.80;;;19.00;99.90;;;;;;5096685;28;20016;-64
2022/05/11 06:42:22;;;;;;;12.77;6.10;;;19.10;99.90;;;;;;5096714;28;20020;-64
2022/05/11 06:44:49;;;;;;;8.95;5.00;;;19.20;99.90;;;;;;5096668;28;20020;-65
2022/05/11 06:47:15;;;;;;;9.20;4.65;;;19.30;99.90;;;;;;5096637;28;20024;-64
2022/05/11 06:49:41;;;;;;;6.85;4.05;;;19.40;99.90;;;;;;5096826;28;20020;-63
2022/05/11 06:52:07;;;;;;;5.65;4.50;;;19.60;99.90;;;;;;5097071;28;20031;-64
2022/05/11 07:00:01;;;;;;;7.80;4.32;;;19.90;99.90;;;;;;5097491;28;20058;-65
2022/05/11 07:02:27;;;;;;;7.82;4.43;;;20.00;99.90;;;;;;5097495;28;20020;-64
2022/05/11 07:04:53;;;;;;;5.28;4.40;;;20.00;99.90;;;;;;5097920;28;20036;-64
2022/05/11 07:07:18;;;;;;;9.63;4.78;;;20.10;99.90;;;;;;5096474;28;20027;-64
2022/05/11 07:09:44;;;;;;;6.30;4.57;;;20.20;99.90;;;;;;5096625;28;20036;-65
2022/05/11 07:12:25;;;;;;;5.97;4.60;;;20.20;99.90;;;;;;5096381;28;20405;-64
2022/05/11 07:14:57;;;;;;;12.75;4.97;;;20.30;99.90;;;;;;5096159;28;20024;-65
2022/05/11 07:17:24;;;;;;;6.90;4.40;;;20.40;99.90;;;;;;5096212;28;20051;-64
2022/05/11 07:19:49;;;;;;;10.23;4.65;;;20.50;99.90;;;;;;5095701;28;20531;-64
2022/05/11 07:22:15;;;;;;;5.82;4.28;;;20.60;99.90;;;;;;5095521;28;20118;-64
2022/05/11 07:24:43;;;;;;;10.20;4.45;;;20.70;99.90;;;;;;5095629;28;20043;-64
2022/05/11 07:27:08;;;;;;;8.48;4.50;;;20.80;99.90;;;;;;5095380;28;20024;-64
2022/05/11 07:29:34;;;;;;;10.57;4.63;;;20.80;99.90;;;;;;5077228;28;20027;-64
2022/05/11 07:32:00;;;;;;;7.53;4.88;;;20.90;99.90;;;;;;5095650;28;20068;-65
2022/05/11 07:34:25;;;;;;;5.97;4.13;;;21.00;99.90;;;;;;5095160;28;20031;-65
2022/05/11 07:36:54;;;;;;;7.25;4.63;;;21.20;99.90;;;;;;5093629;28;20037;-64
2022/05/11 07:39:21;;;;;;;10.68;5.00;;;21.30;99.90;;;;;;5096072;28;20069;-65
2022/05/11 07:41:47;;;;;;;7.95;4.45;;;21.40;99.90;;;;;;5076991;28;20028;-64
2022/05/11 07:44:12;;;;;;;6.93;4.22;;;21.40;99.90;;;;;;5095460;28;20031;-64
2022/05/11 07:46:38;;;;;;;7.22;4.60;;;21.50;99.90;;;;;;5095425;28;20126;-64
2022/05/11 07:49:05;;;;;;;10.27;3.75;;;21.60;99.90;;;;;;5095302;28;20016;-64
2022/05/11 07:51:32;;;;;;;5.93;4.35;;;21.80;99.90;;;;;;5095760;28;20029;-65
2022/05/11 07:53:58;;;;;;;8.02;3.60;;;22.00;99.90;;;;;;5096052;28;20362;-65
2022/05/11 08:01:52;;;;;;;9.25;4.00;;;24.00;98.50;;;;;;5095669;28;20043;-65
2022/05/11 08:04:17;;;;;;;;;;;24.40;97.40;;;;;;5096754;28;20024;-65
2022/05/11 08:06:43;;;;;;;5.22;3.60;;;24.60;96.90;;;;;;5095771;28;19943;-65
2022/05/11 08:09:09;;;;;;;;;;;24.70;96.70;;;;;;5095353;28;20131;-65
2022/05/11 08:11:34;;;;;;;4.50;4.00;;;24.80;96.30;;;;;;5094724;28;20314;-65
2022/05/11 08:14:00;;;;;;;;;;;24.80;96.10;;;;;;5095316;28;20027;-64
2022/05/11 08:16:26;;;;;;;6.70;3.38;;;25.20;95.30;;;;;;5094425;28;19908;-65
2022/05/11 08:18:52;;;;;;;4.35;3.20;;;26.50;93.60;;;;;;5094579;28;20020;-65
2022/05/11 08:21:19;;;;;;;5.15;3.70;;;28.50;91.20;;;;;;5094419;28;20413;-65
2022/05/11 08:23:46;;;;;;;6.28;3.00;;;30.30;85.90;;;;;;5094407;28;20085;-65
2022/05/11 08:26:12;;;;;;;6.05;3.78;;;32.00;79.40;;;;;;5094220;28;20039;-64
2022/05/11 08:28:37;;;;;;;6.13;3.13;;;33.30;73.90;;;;;;5094349;28;20396;-64
2022/05/11 08:33:47;;;;;;;4.15;3.20;;;35.10;65.70;;;;;;5094548;28;20077;-65
2022/05/11 08:36:20;;;;;;;5.78;3.67;;;35.60;64.00;;;;;;5094022;28;20027;-66
2022/05/11 08:38:55;;;;;;;3.65;3.35;;;35.50;62.90;;;;;;5094976;28;20036;-65
2022/05/11 08:41:52;;;;;;;5.72;3.33;;;35.60;61.40;;;;;;5094485;28;20057;-64
2022/05/11 08:44:21;;;;;;;5.70;3.42;;;36.30;59.80;;;;;;5094130;28;20016;-65
2022/05/11 08:46:59;;;;;;;3.50;2.90;;;36.00;59.60;;;;;;5075903;28;20058;-64
2022/05/11 08:49:48;;;;;;;3.13;2.85;;;36.50;58.10;;;;;;5075610;28;20066;-64
2022/05/11 08:53:04;;;;;;;8.02;3.22;;;37.00;57.20;;;;;;5093991;28;20030;-65
2022/05/11 08:55:47;;;;;;;7.88;3.28;;;37.10;56.90;;;;;;5032041;28;20037;-64
2022/05/11 08:58:22;;;;;;;3.80;3.25;;;37.60;56.20;;;;;;5032480;28;20041;-65
2022/05/11 09:00:49;;;;;;;8.23;3.67;;;38.10;55.40;;;;;;5015226;28;20545;-65
2022/05/11 09:03:27;;;;;;;4.22;3.03;;;38.50;55.00;;;;;;5031577;28;20426;-65
2022/05/11 09:05:52;;;;;;;4.30;3.17;;;39.10;54.00;;;;;;5032201;28;20378;-64
2022/05/11 09:08:18;;;;;;;6.57;3.45;;;39.50;53.40;;;;;;5031698;28;20022;-64
2022/05/11 09:10:45;;;;;;;4.90;3.40;;;39.30;52.90;;;;;;5017685;28;20037;-65
2022/05/11 09:13:16;;;;;;;4.70;3.20;;;39.10;53.10;;;;;;5039654;28;20021;-64
2022/05/11 09:15:53;;;;;;;5.70;3.33;;;39.10;52.30;;;;;;5039573;28;20064;-64
2022/05/11 09:18:26;;;;;;;4.32;3.20;;;38.20;53.20;;;;;;5021451;28;20033;-63
2022/05/11 09:20:55;;;;;;;4.88;3.33;;;38.60;52.90;;;;;;5037694;28;20059;-65
2022/05/11 09:23:36;;;;;;;3.17;2.90;;;39.00;52.70;;;;;;5038211;28;20128;-65
2022/05/11 09:26:09;;;;;;;4.75;3.35;;;38.80;52.50;;;;;;5040024;28;20410;-64
2022/05/11 09:28:38;;;;;;;4.47;3.05;;;39.30;52.10;;;;;;5037136;28;20040;-65
2022/05/11 09:31:12;;;;;;;4.75;3.20;;;39.60;51.60;;;;;;5077215;28;20036;-64
2022/05/11 09:33:57;;;;;;;4.47;3.30;;;39.80;51.00;;;;;;5083881;28;20024;-65
2022/05/11 09:36:35;;;;;;;6.30;3.28;;;40.20;50.60;;;;;;5098060;28;20449;-65
2022/05/11 09:39:14;;;;;;;3.25;2.70;;;40.00;50.50;;;;;;5098835;28;20036;-65
2022/05/11 09:41:44;;;;;;;6.25;3.35;;;39.70;50.50;;;;;;5097573;28;20024;-65
2022/05/11 09:44:41;;;;;;;4.28;2.85;;;39.60;51.10;;;;;;5097287;28;20456;-65
2022/05/11 09:47:24;;;;;;;4.63;3.25;;;39.40;50.60;;;;;;5097559;28;20047;-65
2022/05/11 09:49:50;;;;;;;4.00;3.20;;;38.20;50.90;;;;;;5099462;28;20028;-64
2022/05/11 09:52:29;;;;;;;4.60;3.60;;;38.40;51.50;;;;;;5097129;28;20362;-65
2022/05/11 09:54:55;;;;;;;4.30;3.22;;;38.90;51.00;;;;;;5095739;28;20034;-65
2022/05/11 09:57:28;;;;;;;4.97;2.88;;;39.00;50.30;;;;;;5093085;28;20461;-65
2022/05/11 10:00:15;;;;;;;3.88;3.30;;;38.90;50.40;;;;;;5092793;28;20030;-65
2022/05/11 10:02:50;;;;;;;6.15;4.03;;;39.30;50.50;;;;;;5093088;28;20112;-64
2022/05/11 10:05:27;;;;;;;4.00;3.33;;;39.70;50.50;;;;;;5093010;28;20048;-64
2022/05/11 10:08:01;;;;;;;3.38;3.08;;;39.70;49.70;;;;;;5074463;28;20028;-65
2022/05/11 10:10:52;;;;;;;4.80;3.27;;;39.30;49.80;;;;;;5093402;28;20032;-65
2022/05/11 10:13:17;;;;;;;9.48;3.53;;;38.60;50.50;;;;;;5093322;28;20099;-65
2022/05/11 10:24:25;;;;;;;7.82;3.13;;;38.90;49.70;;;;;;5093554;28;20081;-64
2022/05/11 10:27:24;;;;;;;6.03;3.30;;;38.30;50.10;;;;;;5093020;28;20150;-64
2022/05/11 10:30:06;;;;;;;8.00;3.65;;;38.50;50.10;;;;;;5092938;28;20025;-64
2022/05/11 10:33:06;;;;;;;5.15;3.38;;;38.40;50.00;;;;;;5093241;28;20031;-65
2022/05/11 10:35:57;;;;;;;6.70;3.08;;;38.50;49.60;;;;;;5092967;28;20056;-65
2022/05/11 10:38:36;;;;;;;6.05;2.70;;;39.10;49.10;;;;;;5092959;28;20047;-64
2022/05/11 10:41:12;;;;;;;6.97;4.65;;;39.60;48.60;;;;;;5093223;28;20443;-65
2022/05/11 10:44:08;;;;;;;6.93;3.40;;;39.30;48.40;;;;;;5092808;28;20028;-65
2022/05/11 10:46:36;;;;;;;4.45;3.10;;;39.20;48.50;;;;;;5092653;28;20063;-63
2022/05/11 10:49:20;;;;;;;4.78;2.80;;;39.00;48.60;;;;;;5092859;28;20397;-66
2022/05/11 10:52:15;;;;;;;2.67;2.47;;;38.70;48.20;;;;;;5093910;28;20020;-65
2022/05/11 10:54:43;;;;;;;3.38;2.90;;;37.70;48.70;;;;;;5093446;28;20078;-66
2022/05/11 10:57:34;;;;;;;4.68;3.17;;;37.20;49.60;;;;;;5093094;28;20020;-64
2022/05/11 11:00:15;;;;;;;3.13;2.83;;;36.90;50.00;;;;;;5062875;28;20058;-64
2022/05/11 11:03:04;;;;;;;7.00;3.20;;;37.40;49.40;;;;;;5092126;28;20099;-64
2022/05/11 11:08:50;;;;;;;8.40;3.63;;;35.70;50.10;;;;;;5092518;28;20157;-64
2022/05/11 11:11:30;;;;;;;5.82;2.90;;;34.20;52.10;;;;;;5093822;28;20027;-65
2022/05/11 11:14:00;;;;;;;7.78;3.50;;;32.90;53.60;;;;;;5095985;28;20069;-64
2022/05/11 11:16:33;;;;;;;7.97;2.95;;;31.80;55.00;;;;;;5077471;28;20031;-64
2022/05/11 11:18:59;;;;;;;6.85;3.10;;;31.00;55.70;;;;;;5096764;28;20040;-64
2022/05/11 11:21:26;;;;;;;6.10;3.30;;;30.60;56.60;;;;;;5095945;28;20047;-65
2022/05/11 11:24:14;;;;;;;12.68;3.13;;;30.20;56.80;;;;;;5095841;28;20034;-68
2022/05/11 11:26:54;;;;;;;7.75;3.25;;;30.00;57.30;;;;;;5096132;28;20069;-67
2022/05/11 11:29:31;;;;;;;8.35;2.92;;;29.70;58.00;;;;;;5096082;28;20039;-67
2022/05/11 11:31:57;;;;;;;11.25;2.90;;;29.60;57.40;;;;;;5077657;28;20059;-68
2022/05/11 11:34:25;;;;;;;7.18;3.40;;;29.50;58.40;;;;;;5095933;28;20028;-68
2022/05/11 11:36:52;;;;;;;4.63;3.08;;;29.20;58.70;;;;;;5095480;28;20058;-68
2022/05/11 11:39:48;;;;;;;4.43;3.53;;;29.10;59.00;;;;;;5096125;28;20016;-69
2022/05/11 11:42:58;;;;;;;4.25;2.92;;;28.80;59.90;;;;;;5077267;28;20080;-67
2022/05/11 11:45:26;;;;;;;3.47;3.17;;;28.80;58.80;;;;;;5081805;28;20060;-66
2022/05/11 11:48:00;;;;;;;10.60;3.75;;;28.80;59.10;;;;;;5095312;28;20051;-67
2022/05/11 11:50:46;;;;;;;5.38;3.05;;;28.60;60.00;;;;;;5095469;28;20121;-68
2022/05/11 11:53:21;;;;;;;7.85;3.25;;;28.50;60.40;;;;;;5095566;28;20043;-67
2022/05/11 11:55:47;;;;;;;5.93;3.40;;;28.00;60.90;;;;;;5077143;28;20040;-67
2022/05/11 11:58:17;;;;;;;5.65;3.38;;;28.10;60.20;;;;;;5095568;28;20016;-63
2022/05/11 12:00:46;;;;;;;4.60;2.90;;;28.50;59.30;;;;;;5095057;28;20099;-65
2022/05/11 12:03:25;;;;;;;7.07;3.42;;;28.60;59.30;;;;;;5095390;28;20028;-65
2022/05/11 12:17:03;;;;;;;5.97;3.75;;;28.80;59.20;;;;;;5095710;28;20506;-66
2022/05/11 12:19:32;;;;;;;8.02;3.45;;;28.80;60.70;;;;;;5077005;28;20028;-64
2022/05/11 12:22:14;;;;;;;6.38;3.45;;;28.80;60.00;;;;;;5077011;28;20048;-64
2022/05/11 12:24:56;;;;;;;4.72;3.28;;;28.80;59.50;;;;;;5094746;28;20435;-65
2022/05/11 12:27:28;;;;;;;8.13;3.67;;;29.00;60.10;;;;;;5095136;28;20531;-66
2022/05/11 12:29:59;;;;;;;6.95;3.20;;;29.00;60.00;;;;;;5095632;28;20384;-65
2022/05/11 12:32:38;;;;;;;12.50;3.75;;;29.10;59.90;;;;;;5095764;28;20357;-66
2022/05/11 12:35:25;;;;;;;7.88;3.70;;;29.10;59.10;;;;;;5094397;28;20035;-66
2022/05/11 12:37:57;;;;;;;7.32;3.25;;;29.10;59.30;;;;;;5094155;28;20094;-67
2022/05/11 12:40:23;;;;;;;9.45;3.60;;;29.10;60.10;;;;;;5076313;28;20042;-66
2022/05/11 12:42:52;;;;;;;9.52;3.80;;;29.20;59.70;;;;;;5094461;28;20430;-66
2022/05/11 12:45:42;;;;;;;13.60;4.20;;;29.30;59.90;;;;;;5094811;28;20047;-65
2022/05/11 12:48:08;;;;;;;10.07;5.50;;;29.40;60.00;;;;;;5094429;28;20045;-64
2022/05/11 12:50:39;;;;;;;8.30;3.35;;;29.50;60.10;;;;;;5094845;28;20019;-65
2022/05/11 12:53:06;;;;;;;7.25;3.15;;;29.50;59.20;;;;;;5095192;28;20016;-66
2022/05/11 12:55:35;;;;;;;7.45;3.50;;;29.50;59.10;;;;;;5094606;28;20051;-65
2022/05/11 12:58:02;;;;;;;7.10;3.45;;;29.40;58.90;;;;;;5096125;28;20016;-66
2022/05/11 13:00:30;;;;;;;4.00;2.88;;;29.50;59.40;;;;;;5095553;28;20035;-65
2022/05/11 13:02:56;;;;;;;7.63;3.13;;;29.50;59.30;;;;;;5095068;28;20027;-66
2022/05/11 13:05:22;;;;;;;4.47;2.83;;;29.50;58.40;;;;;;5095030;28;20028;-66
2022/05/11 13:08:03;;;;;;;6.80;3.47;;;29.40;58.00;;;;;;5093849;28;20031;-64
2022/05/11 13:10:38;;;;;;;5.15;2.78;;;29.50;58.00;;;;;;5094613;28;20035;-63
2022/05/11 13:13:11;;;;;;;4.45;2.78;;;29.60;57.80;;;;;;5093876;28;20031;-65
2022/05/11 13:15:40;;;;;;;4.35;2.60;;;29.60;57.70;;;;;;5094296;28;20024;-68
2022/05/11 13:18:11;;;;;;;5.75;2.88;;;29.60;57.80;;;;;;5094640;28;20035;-66
2022/05/11 13:20:40;;;;;;;3.15;2.63;;;29.60;57.40;;;;;;5094493;28;20054;-66
2022/05/11 13:23:33;;;;;;;7.13;2.38;;;29.60;57.20;;;;;;5094227;28;20035;-66
2022/05/11 13:26:04;;;;;;;5.05;2.38;;;29.70;56.00;;;;;;5085840;28;20089;-64
2022/05/11 13:28:42;;;;;;;2.30;2.10;;;29.60;56.00;;;;;;5093661;28;20107;-66
2022/05/11 13:31:44;;;;;;;5.18;2.92;;;29.60;56.50;;;;;;5094154;28;20066;-66
2022/05/11 13:34:33;;;;;;;7.00;2.58;;;29.80;56.60;;;;;;5031358;28;20029;-65
2022/05/11 13:37:01;;;;;;;4.93;2.50;;;29.90;56.10;;;;;;5014734;28;20041;-65
2022/05/11 13:39:30;;;;;;;5.53;2.58;;;29.90;55.40;;;;;;5107186;22;20040;-65
2022/05/11 13:41:59;;;;;;;8.35;3.90;;;30.00;55.60;;;;;;5093243;28;20052;-66
2022/05/11 13:44:51;;;;;;;4.35;2.20;;;30.00;55.20;;;;;;5074747;28;20074;-64
2022/05/11 13:50:29;;;;;;;3.15;2.03;;;30.00;53.10;;;;;;5073124;28;20040;-65
2022/05/11 13:53:00;;;;;;;5.05;2.40;;;30.10;53.10;;;;;;5073109;28;20031;-64
2022/05/11 13:55:39;;;;;;;5.40;2.05;;;30.10;52.70;;;;;;5055019;28;20025;-64
2022/05/11 13:58:47;;;;;;;7.75;2.05;;;30.10;52.70;;;;;;5072584;28;20037;-64
2022/05/11 14:01:20;;;;;;;3.40;2.05;;;30.10;52.60;;;;;;5011185;28;20093;-65